Diamond Bluff, Wisconsin
Current Conditions -  °F | °C
As of 5:34 AM on Tuesday 21 Oct 2014 (Local Time) from KRGK Reporting Station
Clear Clear  
Wind Chill: 34°   Ceiling: Unl
Heat Index: 34°   Visibility: 7mi
Dew Point: 32°   Wind: 0mph
Humidity: 93%   Direction: NA
Pressure: 30.16"   Gusts: NA
Location:  44.6468°N, 92.567°W
Report Text: KRGK 211034Z AUTO 00000KT 7SM CLR 01/00 A3016 RMK AO2
Loading
Personal Weather Stations






























Interactive Weather Map
Tropical Storm Tracking
New forecast layout! Learn more

10-Day Weather Forecast

Advertisements
Track Severe Weather on mobile